This is the latest recevied weather packets stored in our database for station/object KEFK. If no packets are shown the sender has not sent any weather packets the latest 10 day(s).
| Time | Temp. | Humidity | Pressure | Rain* | Wind** | Luminosity | Snow |
|---|---|---|---|---|---|---|---|
| 1777275204 | 3.89° C | 80% | 1023 hPa | - | - | - | - |
| 1777274607 | 3.89° C | 80% | 1023 hPa | - | - | - | - |
| 1777274008 | 3.89° C | 86% | 1023 hPa | - | - | - | - |
| 1777273407 | 3.89° C | 86% | 1023 hPa | - | - | - | - |
| 1777272811 | 2.78° C | - | 1022.7 hPa | - | - | - | - |
| 1777272207 | 2.78° C | - | 1022.7 hPa | - | - | - | - |
| 1777271606 | 5° C | 75% | 1022.7 hPa | - | - | - | - |
| 1777271007 | 5° C | 75% | 1022.7 hPa | - | - | - | - |
| 1777270408 | 3.89° C | 80% | 1022.7 hPa | - | - | - | - |
| 1777269804 | 3.89° C | 80% | 1022.7 hPa | - | - | - | - |
| 1777269209 | 5° C | 80% | 1022.7 hPa | - | - | - | - |
| 1777268609 | 5° C | 80% | 1022.7 hPa | - | - | - | - |
| 1777268008 | 5.56° C | 70% | 1023 hPa | - | - | - | - |
| 1777267409 | 5.56° C | 70% | 1023 hPa | - | - | - | - |
| 1777266807 | 5° C | 75% | 1023 hPa | - | - | - | - |
| 1777266208 | 5° C | 75% | 1023 hPa | - | - | - | - |
| 1777265609 | 6.67° C | 65% | 1022.7 hPa | - | - | - | - |
| 1777265009 | 6.67° C | 65% | 1022.7 hPa | - | - | - | - |
| 1777264409 | 6.67° C | 70% | 1022.7 hPa | - | - | - | - |
| 1777263806 | 6.67° C | 70% | 1022.7 hPa | - | - | - | - |
| 1777263210 | 7.78° C | 61% | 1022.7 hPa | - | - | - | - |
| 1777262611 | 7.78° C | 61% | 1022.7 hPa | - | - | - | - |
| 1777262008 | 7.78° C | 61% | 1022.7 hPa | - | - | - | - |
| 1777261409 | 7.78° C | 61% | 1022.7 hPa | - | - | - | - |
| 1777260809 | 7.78° C | 65% | 1022.4 hPa | - | - | - | - |
* Rain since midnight (hover to see other rain measurements)
** Current wind speed in m/s (hover to see current wind gust speed)